Kremmling, Colorado
Current Conditions -  °F | °C
As of 11:35 AM on Wednesday 26 Nov 2014 (Local Time) from K20V Reporting Station
Overcast Overcast  
Wind Chill: 28°   Ceiling: 5000
Heat Index: 37°   Visibility: 10mi
Dew Point: 27°   Wind: 16mph
Humidity: 65%   Direction: 270°W
Pressure: 30.32"   Gusts: 23mph
Location:  40.06°N, 106.39°W
Report Text: K20V 261835Z AUTO 27014G20KT 10SM SCT045 OVC050 03/M03 A3032 RMK AO2
Loading
Personal Weather Stations






























Interactive Weather Map New forecast layout! Learn more

10-Day Weather Forecast

Advertisements
Track Severe Weather on mobile